createdAt,value
2018-07-10T00:00:35.793Z,96750.19
2018-07-10T00:06:17.832Z,96741.56
2018-07-10T00:11:57.584Z,96726.09
2018-07-10T00:15:22.461Z,96714.09
2018-07-10T00:18:47.165Z,96709.33
2018-07-10T00:22:11.594Z,96702.53
2018-07-10T00:25:36.322Z,96699.91
2018-07-10T00:29:00.985Z,96702.00
2018-07-10T00:32:25.282Z,96703.94
2018-07-10T00:35:50.041Z,96697.80
2018-07-10T00:39:14.797Z,96700.34
2018-07-10T00:42:39.567Z,96708.66
2018-07-10T00:46:04.339Z,96709.61
2018-07-10T00:49:29.153Z,96712.78
2018-07-10T00:52:53.869Z,96711.91
2018-07-10T00:56:18.593Z,96713.52
2018-07-10T00:59:43.286Z,96723.81
2018-07-10T01:03:08.151Z,96717.57
2018-07-10T01:06:33.004Z,96716.52
2018-07-10T01:09:57.753Z,96711.73
2018-07-10T01:13:22.510Z,96706.63
2018-07-10T01:16:47.262Z,96706.59
2018-07-10T01:20:12.156Z,96706.47
2018-07-10T01:23:38.786Z,96707.68
2018-07-10T01:27:03.583Z,96706.14
2018-07-10T01:30:28.349Z,96704.66
2018-07-10T01:33:53.081Z,96699.66
2018-07-10T01:37:17.836Z,96696.22
2018-07-10T01:40:43.854Z,96695.53
2018-07-10T01:44:08.527Z,96691.08
2018-07-10T01:47:33.210Z,96693.12
2018-07-10T01:50:57.954Z,96687.42
2018-07-10T01:54:22.257Z,96686.27
2018-07-10T01:57:47.073Z,96687.66
2018-07-10T02:01:11.860Z,96688.27
2018-07-10T02:04:38.106Z,96687.90
2018-07-10T02:08:03.288Z,96691.40
2018-07-10T02:11:28.138Z,96683.70
2018-07-10T02:14:52.828Z,96686.00
2018-07-10T02:18:17.590Z,96683.77
2018-07-10T02:21:41.850Z,96683.77
2018-07-10T02:25:06.673Z,96681.48
2018-07-10T02:28:31.412Z,96680.49
2018-07-10T02:31:56.241Z,96681.14
2018-07-10T02:35:20.962Z,96684.80
2018-07-10T02:38:48.777Z,96677.93
2018-07-10T02:42:13.101Z,96676.84
2018-07-10T02:45:37.874Z,96675.61
2018-07-10T02:49:11.338Z,96681.55
2018-07-10T02:52:39.995Z,96677.06
2018-07-10T02:56:05.515Z,96676.52
2018-07-10T02:59:36.522Z,96682.39
2018-07-10T03:03:02.534Z,96682.03
2018-07-10T03:06:27.218Z,96680.05
2018-07-10T03:09:51.971Z,96683.99
2018-07-10T03:13:17.318Z,96680.48
2018-07-10T03:16:42.076Z,96678.04
2018-07-10T03:20:07.711Z,96677.85
2018-07-10T03:23:32.418Z,96682.09
2018-07-10T03:26:57.093Z,96680.75
2018-07-10T03:30:22.066Z,96679.36
2018-07-10T03:33:46.897Z,96686.03
2018-07-10T03:37:12.668Z,96680.83
2018-07-10T03:40:37.424Z,96689.91
2018-07-10T03:44:02.166Z,96689.91
2018-07-10T03:47:28.122Z,96699.30
2018-07-10T03:50:53.400Z,96703.61
2018-07-10T03:54:19.084Z,96696.59
2018-07-10T03:57:43.952Z,96700.42
2018-07-10T04:01:08.780Z,96696.20
2018-07-10T04:04:33.534Z,96703.86
2018-07-10T04:07:58.908Z,96692.41
2018-07-10T04:11:24.717Z,96693.56
2018-07-10T04:14:49.471Z,96701.00
2018-07-10T04:18:16.132Z,96709.25
2018-07-10T04:21:40.892Z,96703.34
2018-07-10T04:25:05.705Z,96714.75
2018-07-10T04:28:35.763Z,96715.94
2018-07-10T04:32:01.790Z,96713.58
2018-07-10T04:35:28.361Z,96711.91
2018-07-10T04:38:57.206Z,96715.61
2018-07-10T04:42:29.566Z,96712.76
2018-07-10T04:45:57.177Z,96721.18
2018-07-10T04:49:30.719Z,96714.91
2018-07-10T04:53:03.254Z,96710.11
2018-07-10T04:56:28.953Z,96713.06
2018-07-10T04:59:53.691Z,96711.72
2018-07-10T05:03:20.668Z,96710.22
2018-07-10T05:06:45.431Z,96708.53
2018-07-10T05:10:10.485Z,96713.06
2018-07-10T05:13:36.146Z,96719.95
2018-07-10T05:17:01.431Z,96720.48
2018-07-10T05:20:27.378Z,96728.11
2018-07-10T05:23:52.214Z,96718.57
2018-07-10T05:27:17.247Z,96713.67
2018-07-10T05:30:43.960Z,96708.69
2018-07-10T05:34:08.824Z,96702.23
2018-07-10T05:37:37.267Z,96699.94
2018-07-10T05:41:01.999Z,96701.78
2018-07-10T05:44:26.338Z,96697.66
2018-07-10T05:47:57.570Z,96701.45
2018-07-10T05:51:23.554Z,96689.10
2018-07-10T05:54:48.469Z,96686.17
2018-07-10T05:58:12.921Z,96682.55
2018-07-10T06:01:38.964Z,96680.27
2018-07-10T06:05:03.741Z,96682.97
2018-07-10T06:08:28.581Z,96683.23
2018-07-10T06:11:53.278Z,96686.88
2018-07-10T06:15:18.533Z,96687.34
2018-07-10T06:18:44.212Z,96694.48
2018-07-10T06:22:09.121Z,96696.17
2018-07-10T06:25:35.814Z,96696.62
2018-07-10T06:29:05.119Z,96689.66
2018-07-10T06:32:36.846Z,96689.84
2018-07-10T06:36:18.898Z,96682.50
2018-07-10T06:39:43.603Z,96685.34
2018-07-10T06:44:12.512Z,96683.89
2018-07-10T06:47:48.757Z,96686.45
2018-07-10T06:51:19.858Z,96682.51
2018-07-10T06:54:57.511Z,96683.63
2018-07-10T06:58:23.861Z,96680.88
2018-07-10T07:01:49.621Z,96684.34
2018-07-10T07:05:14.985Z,96690.16
2018-07-10T07:08:39.848Z,96693.87
2018-07-10T07:12:05.309Z,96695.59
2018-07-10T07:15:30.104Z,96691.37
2018-07-10T07:19:01.172Z,96690.59
2018-07-10T07:22:26.295Z,96693.70
2018-07-10T07:26:01.799Z,96685.65
2018-07-10T07:29:27.634Z,96690.47
2018-07-10T07:36:05.787Z,96689.20
2018-07-10T07:39:31.703Z,96690.48
2018-07-10T07:43:05.348Z,96692.05
2018-07-10T07:46:31.322Z,96688.77
2018-07-10T07:49:56.317Z,96691.96
2018-07-10T07:53:21.444Z,96693.77
2018-07-10T07:56:47.645Z,96691.60
2018-07-10T08:00:12.383Z,96688.69
2018-07-10T08:03:38.611Z,96693.08
2018-07-10T08:07:03.411Z,96690.23
2018-07-10T08:10:28.273Z,96689.77
2018-07-10T08:13:53.233Z,96691.75
2018-07-10T08:17:18.207Z,96692.41
2018-07-10T08:20:43.133Z,96680.25
2018-07-10T08:24:09.147Z,96685.86
2018-07-10T08:27:37.327Z,96686.29
2018-07-10T08:31:03.939Z,96684.11
2018-07-10T08:34:30.325Z,96682.89
2018-07-10T08:37:55.361Z,96686.48
2018-07-10T08:41:22.519Z,96671.48
2018-07-10T08:44:47.266Z,96673.95
2018-07-10T08:48:13.060Z,96677.44
2018-07-10T08:51:38.016Z,96667.55
2018-07-10T08:55:03.375Z,96665.85
2018-07-10T08:58:28.226Z,96662.32
2018-07-10T09:01:53.358Z,96671.61
2018-07-10T09:05:18.199Z,96669.22
2018-07-10T09:08:42.959Z,96671.76
2018-07-10T09:12:07.352Z,96669.58
2018-07-10T09:15:33.307Z,96677.53
2018-07-10T09:18:57.677Z,96673.88
2018-07-10T09:22:22.382Z,96666.41
2018-07-10T09:25:47.230Z,96673.52
2018-07-10T09:29:11.527Z,96670.14
2018-07-10T09:32:41.669Z,96673.44
2018-07-10T09:36:06.308Z,96670.45
2018-07-10T09:39:31.277Z,96672.39
2018-07-10T09:43:01.413Z,96669.80
2018-07-10T09:46:29.861Z,96665.85
2018-07-10T09:49:54.719Z,96665.51
2018-07-10T09:53:19.478Z,96673.86
2018-07-10T09:56:44.471Z,96664.16
2018-07-10T10:00:09.314Z,96652.75
2018-07-10T10:03:34.835Z,96656.53
2018-07-10T10:07:00.342Z,96644.34
2018-07-10T10:10:25.310Z,96653.54
2018-07-10T10:13:50.308Z,96651.16
2018-07-10T10:17:16.184Z,96653.73
2018-07-10T10:20:42.078Z,96645.48
2018-07-10T10:24:06.487Z,96648.52
2018-07-10T10:27:32.601Z,96646.88
2018-07-10T10:30:57.363Z,96643.47
2018-07-10T10:34:22.026Z,96653.36
2018-07-10T10:37:47.247Z,96646.52
2018-07-10T10:41:13.511Z,96646.58
2018-07-10T10:44:38.198Z,96646.05
2018-07-10T10:48:02.695Z,96641.82
2018-07-10T10:51:27.513Z,96654.34
2018-07-10T10:54:52.276Z,96644.48
2018-07-10T10:58:17.067Z,96638.97
2018-07-10T11:01:41.405Z,96637.21
2018-07-10T11:05:06.265Z,96646.70
2018-07-10T11:08:31.135Z,96633.83
2018-07-10T11:11:57.244Z,96654.89
2018-07-10T11:15:22.318Z,96634.78
2018-07-10T11:19:00.905Z,96627.50
2018-07-10T11:22:25.988Z,96633.34
2018-07-10T11:25:50.970Z,96632.70
2018-07-10T11:29:16.009Z,96629.83
2018-07-10T11:32:40.755Z,96638.01
2018-07-10T11:36:05.465Z,96634.05
2018-07-10T11:39:30.636Z,96634.52
2018-07-10T11:42:55.288Z,96626.30
2018-07-10T11:46:20.042Z,96625.95
2018-07-10T11:49:44.338Z,96621.02
2018-07-10T11:53:10.091Z,96621.68
2018-07-10T11:56:34.861Z,96622.87
2018-07-10T11:59:59.681Z,96623.08
2018-07-10T12:03:25.878Z,96617.27
2018-07-10T12:06:52.345Z,96618.84
2018-07-10T12:10:26.188Z,96614.27
2018-07-10T12:13:50.907Z,96618.02
2018-07-10T12:17:15.217Z,96619.24
2018-07-10T12:20:41.461Z,96612.59
2018-07-10T12:24:06.772Z,96605.02
2018-07-10T12:27:31.771Z,96609.64
2018-07-10T12:30:56.461Z,96605.08
2018-07-10T12:34:21.151Z,96604.83
2018-07-10T12:37:45.893Z,96610.31
2018-07-10T12:41:11.677Z,96600.48
2018-07-10T12:44:36.390Z,96595.51
2018-07-10T12:48:01.163Z,96583.17
2018-07-10T12:51:25.905Z,96583.86
2018-07-10T12:54:50.919Z,96580.96
2018-07-10T12:58:16.792Z,96579.52
2018-07-10T13:01:41.497Z,96582.12
2018-07-10T13:05:07.514Z,96579.28
2018-07-10T13:08:33.287Z,96580.95
2018-07-10T13:11:57.671Z,96571.34
2018-07-10T13:15:22.503Z,96566.04
2018-07-10T13:18:47.254Z,96564.97
2018-07-10T13:22:11.994Z,96571.23
2018-07-10T13:25:36.709Z,96564.15
2018-07-10T13:29:01.458Z,96571.44
2018-07-10T13:32:26.264Z,96565.29
2018-07-10T13:35:51.131Z,96575.92
2018-07-10T13:39:15.761Z,96570.44
2018-07-10T13:42:48.981Z,96564.45
2018-07-10T13:46:13.672Z,96557.19
2018-07-10T13:49:37.927Z,96549.09
2018-07-10T13:53:04.153Z,96545.81
2018-07-10T13:56:28.795Z,96546.86
2018-07-10T13:59:53.443Z,96549.95
2018-07-10T14:03:18.164Z,96546.17
2018-07-10T14:06:42.559Z,96542.45
2018-07-10T14:10:07.277Z,96550.05
2018-07-10T14:13:31.635Z,96541.98
2018-07-10T14:16:56.371Z,96547.91
2018-07-10T14:20:21.060Z,96532.81
2018-07-10T14:23:45.792Z,96538.65
2018-07-10T14:27:10.519Z,96522.23
2018-07-10T14:30:36.244Z,96537.23
2018-07-10T14:34:00.951Z,96525.77
2018-07-10T14:37:25.298Z,96522.06
2018-07-10T14:40:51.268Z,96527.84
2018-07-10T14:44:16.160Z,96537.14
2018-07-10T14:47:40.837Z,96531.72
2018-07-10T14:51:05.543Z,96523.45
2018-07-10T14:54:30.256Z,96521.07
2018-07-10T14:57:55.762Z,96518.14
2018-07-10T15:01:20.474Z,96517.48
2018-07-10T15:04:45.186Z,96517.63
2018-07-10T15:09:38.928Z,96510.84
2018-07-10T15:13:03.630Z,96518.80
2018-07-10T15:16:33.112Z,96507.08
2018-07-10T15:19:57.882Z,96509.81
2018-07-10T15:23:22.679Z,96502.09
2018-07-10T15:26:47.321Z,96514.10
2018-07-10T15:30:12.114Z,96507.76
2018-07-10T15:33:36.835Z,96519.42
2018-07-10T15:37:02.188Z,96510.58
2018-07-10T15:40:26.918Z,96517.63
2018-07-10T15:43:51.607Z,96521.46
2018-07-10T15:47:16.317Z,96525.86
2018-07-10T15:50:41.090Z,96523.03
2018-07-10T15:54:05.445Z,96528.07
2018-07-10T15:57:29.796Z,96518.15
2018-07-10T16:00:54.548Z,96526.37
2018-07-10T16:04:19.322Z,96527.23
2018-07-10T16:07:44.076Z,96522.36
2018-07-10T16:11:08.376Z,96526.47
2018-07-10T16:14:33.047Z,96528.10
2018-07-10T16:17:57.376Z,96518.78
2018-07-10T16:21:22.104Z,96517.22
2018-07-10T16:24:51.115Z,96512.78
2018-07-10T16:28:18.297Z,96514.58
2018-07-10T16:31:45.449Z,96521.63
2018-07-10T16:35:10.750Z,96531.72
2018-07-10T16:38:37.282Z,96518.95
2018-07-10T16:42:07.261Z,96504.05
2018-07-10T16:45:37.594Z,96513.36
2018-07-10T16:49:43.861Z,96509.84
2018-07-10T16:53:08.620Z,96509.34
2018-07-10T16:56:33.363Z,96513.46
2018-07-10T16:59:58.544Z,96520.48
2018-07-10T17:03:23.249Z,96514.83
2018-07-10T17:06:47.971Z,96519.30
2018-07-10T17:10:12.930Z,96519.05
2018-07-10T17:13:38.694Z,96525.56
2018-07-10T17:17:03.425Z,96516.34
2018-07-10T17:20:28.309Z,96522.78
2018-07-10T17:23:53.832Z,96526.43
2018-07-10T17:27:23.319Z,96531.70
2018-07-10T17:30:48.021Z,96531.96
2018-07-10T17:34:12.874Z,96536.03
2018-07-10T17:37:48.273Z,96531.82
2018-07-10T17:41:13.168Z,96536.83
2018-07-10T17:44:39.128Z,96531.40
2018-07-10T17:48:03.871Z,96528.80
2018-07-10T17:51:31.887Z,96527.90
2018-07-10T17:54:56.608Z,96530.64
2018-07-10T17:58:23.115Z,96530.23
2018-07-10T18:01:48.050Z,96533.14
2018-07-10T18:05:13.067Z,96531.86
2018-07-10T18:08:39.045Z,96540.37
2018-07-10T18:12:04.193Z,96532.69
2018-07-10T18:15:29.221Z,96534.88
2018-07-10T18:18:54.234Z,96540.05
2018-07-10T18:22:19.496Z,96544.17
2018-07-10T18:25:44.512Z,96541.14
2018-07-10T18:29:09.434Z,96545.34
2018-07-10T18:32:34.076Z,96554.20
2018-07-10T18:35:59.726Z,96552.86
2018-07-10T18:39:24.659Z,96551.84
2018-07-10T18:42:49.783Z,96550.30
2018-07-10T18:46:14.834Z,96558.16
2018-07-10T18:49:39.908Z,96555.06
2018-07-10T18:53:04.819Z,96553.29
2018-07-10T18:56:30.785Z,96561.27
2018-07-10T19:00:06.480Z,96555.37
2018-07-10T19:03:34.656Z,96558.94
2018-07-10T19:06:59.244Z,96558.98
2018-07-10T19:10:24.408Z,96561.74
2018-07-10T19:13:49.357Z,96561.38
2018-07-10T19:17:17.996Z,96562.66
2018-07-10T19:20:53.887Z,96564.95
2018-07-10T19:24:19.709Z,96568.98
2018-07-10T19:27:46.723Z,96568.98
2018-07-10T19:31:19.433Z,96572.94
2018-07-10T19:34:44.653Z,96569.55
2018-07-10T19:38:10.266Z,96575.38
2018-07-10T19:41:34.971Z,96580.48
2018-07-10T19:45:02.199Z,96584.79
2018-07-10T19:48:26.971Z,96588.81
2018-07-10T19:51:52.089Z,96581.89
2018-07-10T19:55:18.598Z,96590.00
2018-07-10T19:58:45.279Z,96598.05
2018-07-10T20:02:10.787Z,96601.17
2018-07-10T20:05:36.910Z,96600.30
2018-07-10T20:09:08.822Z,96603.58
2018-07-10T20:12:39.304Z,96611.56
2018-07-10T20:16:09.637Z,96611.94
2018-07-10T20:19:44.476Z,96615.92
2018-07-10T20:23:30.180Z,96620.08
2018-07-10T20:27:10.522Z,96623.05
2018-07-10T20:30:53.271Z,96624.69
2018-07-10T20:34:55.390Z,96631.00
2018-07-10T20:38:21.109Z,96632.03
2018-07-10T20:41:47.722Z,96632.69
2018-07-10T20:45:13.186Z,96626.05
2018-07-10T20:48:55.898Z,96629.36
2018-07-10T20:53:01.377Z,96633.36
2018-07-10T20:58:49.649Z,96644.88
2018-07-10T21:04:27.766Z,96643.58
2018-07-10T21:07:57.648Z,96643.83
2018-07-10T21:11:28.336Z,96644.70
2018-07-10T21:15:05.603Z,96644.16
2018-07-10T21:19:47.457Z,96639.85
2018-07-10T21:23:26.797Z,96644.62
2018-07-10T21:27:01.251Z,96644.89
2018-07-10T21:30:49.778Z,96641.28
2018-07-10T21:34:25.160Z,96643.08
2018-07-10T21:38:02.965Z,96643.14
2018-07-10T21:42:51.096Z,96636.09
2018-07-10T21:46:33.821Z,96635.59
2018-07-10T21:50:02.310Z,96631.46
2018-07-10T21:53:27.543Z,96637.14
2018-07-10T21:56:53.220Z,96638.52
2018-07-10T22:00:18.581Z,96634.28
2018-07-10T22:03:43.850Z,96638.27
2018-07-10T22:07:13.412Z,96645.38
2018-07-10T22:10:38.650Z,96645.38
2018-07-10T22:14:03.976Z,96641.20
2018-07-10T22:17:29.355Z,96630.70
2018-07-10T22:20:54.712Z,96633.55
2018-07-10T22:24:20.367Z,96629.67
2018-07-10T22:27:45.782Z,96629.01
2018-07-10T22:31:17.096Z,96629.98
2018-07-10T22:34:45.275Z,96623.98
2018-07-10T22:38:10.049Z,96627.78
2018-07-10T22:41:35.417Z,96626.27
2018-07-10T22:45:01.020Z,96635.20
2018-07-10T22:48:26.411Z,96643.82
2018-07-10T22:51:51.668Z,96634.83
2018-07-10T22:55:20.956Z,96629.66
2018-07-10T22:58:46.297Z,96626.30
2018-07-10T23:02:17.089Z,96632.05
2018-07-10T23:05:44.219Z,96639.17
2018-07-10T23:09:08.551Z,96637.27
2018-07-10T23:12:33.262Z,96638.47
2018-07-10T23:15:58.015Z,96637.41
2018-07-10T23:19:22.779Z,96634.79
2018-07-10T23:22:55.916Z,96630.13
2018-07-10T23:26:20.730Z,96625.84
2018-07-10T23:29:45.463Z,96628.08
2018-07-10T23:33:15.940Z,96627.14
2018-07-10T23:36:40.374Z,96628.44
2018-07-10T23:40:05.694Z,96626.28
2018-07-10T23:43:38.800Z,96622.00
2018-07-10T23:47:13.283Z,96618.67
2018-07-10T23:50:38.328Z,96619.75
2018-07-10T23:54:03.043Z,96629.36
2018-07-10T23:57:27.724Z,96619.73
